createdAt,value
2022-11-24T00:00:12.326Z,9.27
2022-11-24T00:02:46.248Z,9.13
2022-11-24T00:05:20.382Z,9.30
2022-11-24T00:07:54.385Z,9.10
2022-11-24T00:10:29.816Z,9.43
2022-11-24T00:13:03.793Z,8.57
2022-11-24T00:15:37.706Z,8.07
2022-11-24T00:18:11.727Z,8.57
2022-11-24T00:20:52.865Z,9.43
2022-11-24T00:23:27.404Z,8.90
2022-11-24T00:26:11.446Z,9.10
2022-11-24T00:28:46.555Z,8.77
2022-11-24T00:31:23.509Z,8.75
2022-11-24T00:33:59.338Z,8.70
2022-11-24T00:36:35.139Z,8.75
2022-11-24T00:39:12.369Z,8.82
2022-11-24T00:41:47.745Z,8.90
2022-11-24T00:44:21.965Z,8.68
2022-11-24T00:49:29.686Z,9.18
2022-11-24T00:52:03.720Z,9.68
2022-11-24T00:54:37.820Z,9.75
2022-11-24T00:57:13.687Z,10.05
2022-11-24T00:59:51.365Z,10.18
2022-11-24T01:02:25.336Z,10.02
2022-11-24T01:04:59.175Z,9.18
2022-11-24T01:10:07.955Z,9.17
2022-11-24T01:12:43.247Z,9.40
2022-11-24T01:15:17.233Z,9.02
2022-11-24T01:17:51.063Z,9.38
2022-11-24T01:22:58.947Z,9.55
2022-11-24T01:25:32.752Z,9.85
2022-11-24T01:30:41.995Z,9.20
2022-11-24T01:33:15.904Z,8.68
2022-11-24T01:38:23.660Z,9.15
2022-11-24T01:41:03.396Z,9.77
2022-11-24T01:43:38.861Z,8.98
2022-11-24T01:46:19.025Z,10.07
2022-11-24T01:48:59.319Z,8.60
2022-11-24T01:51:37.253Z,9.25
2022-11-24T01:54:17.603Z,9.57
2022-11-24T01:56:55.897Z,8.55
2022-11-24T01:59:31.422Z,9.45
2022-11-24T02:02:05.778Z,8.88
2022-11-24T02:04:40.611Z,7.97
2022-11-24T02:07:15.257Z,8.73
2022-11-24T02:09:53.022Z,9.30
2022-11-24T02:12:28.462Z,8.65
2022-11-24T02:15:04.040Z,9.25
2022-11-24T02:17:38.067Z,8.68
2022-11-24T02:20:13.372Z,9.20
2022-11-24T02:22:55.052Z,9.07
2022-11-24T02:25:35.947Z,8.40
2022-11-24T02:28:15.767Z,8.30
2022-11-24T02:30:50.383Z,8.90
2022-11-24T02:33:25.419Z,7.97
2022-11-24T02:35:59.363Z,8.60
2022-11-24T02:38:34.254Z,9.02
2022-11-24T02:41:11.352Z,8.65
2022-11-24T02:43:53.527Z,8.45
2022-11-24T02:46:27.697Z,7.88
2022-11-24T02:49:01.572Z,8.10
2022-11-24T02:54:09.051Z,8.03
2022-11-24T02:56:42.914Z,8.55
2022-11-24T03:01:52.305Z,7.80
2022-11-24T03:04:26.255Z,8.10
2022-11-24T03:07:00.211Z,8.23
2022-11-24T03:09:34.277Z,8.13
2022-11-24T03:12:09.124Z,8.25
2022-11-24T03:14:44.584Z,7.25
2022-11-24T03:17:18.469Z,7.65
2022-11-24T03:19:52.354Z,7.50
2022-11-24T03:22:26.298Z,7.07
2022-11-24T03:25:00.138Z,7.60
2022-11-24T03:30:10.874Z,7.80
2022-11-24T03:32:44.735Z,7.30
2022-11-24T03:37:52.283Z,7.88
2022-11-24T03:40:26.141Z,7.50
2022-11-24T03:42:59.967Z,8.30
2022-11-24T03:48:24.345Z,7.80
2022-11-24T03:53:33.715Z,7.43
2022-11-24T03:56:08.199Z,8.15
2022-11-24T03:58:42.050Z,7.05
2022-11-24T04:03:51.015Z,6.57
2022-11-24T04:08:58.366Z,7.27
2022-11-24T04:14:23.198Z,8.15
2022-11-24T04:19:32.443Z,7.07
2022-11-24T04:22:06.260Z,5.95
2022-11-24T04:27:13.659Z,6.57
2022-11-24T04:32:22.480Z,6.07
2022-11-24T04:34:56.310Z,5.80
2022-11-24T04:40:03.985Z,7.50
2022-11-24T04:42:37.988Z,6.40
2022-11-24T04:45:12.921Z,6.78
2022-11-24T04:47:48.281Z,6.00
2022-11-24T04:50:22.500Z,6.65
2022-11-24T04:52:56.283Z,6.20
2022-11-24T04:55:30.323Z,6.05
2022-11-24T04:58:04.262Z,5.78
2022-11-24T05:03:13.537Z,5.72
2022-11-24T05:05:47.456Z,5.93
2022-11-24T05:08:21.297Z,6.20
2022-11-24T05:13:28.767Z,6.00
2022-11-24T05:16:02.799Z,5.93
2022-11-24T05:18:39.197Z,5.60
2022-11-24T05:21:13.022Z,5.32
2022-11-24T05:26:20.459Z,6.60
2022-11-24T05:28:54.340Z,5.43
2022-11-24T05:31:28.352Z,6.07
2022-11-24T05:37:03.152Z,5.43
2022-11-24T05:39:38.240Z,5.93
2022-11-24T05:42:29.421Z,5.20
2022-11-24T05:45:03.799Z,5.05
2022-11-24T05:47:37.728Z,4.75
2022-11-24T05:50:15.157Z,5.00
2022-11-24T05:52:49.536Z,4.93
2022-11-24T05:55:23.488Z,6.13
2022-11-24T05:58:01.051Z,6.03
2022-11-24T06:00:35.985Z,6.80
2022-11-24T06:03:11.797Z,5.55
2022-11-24T06:05:49.147Z,7.40
2022-11-24T06:08:25.620Z,6.97
2022-11-24T06:11:17.421Z,5.93
2022-11-24T06:13:51.460Z,6.78
2022-11-24T06:16:27.332Z,6.32
2022-11-24T06:19:01.883Z,6.38
2022-11-24T06:21:37.247Z,6.30
2022-11-24T06:24:11.266Z,5.30
2022-11-24T06:26:45.205Z,5.45
2022-11-24T06:29:19.149Z,5.32
2022-11-24T06:31:53.610Z,5.88
2022-11-24T06:34:27.595Z,5.78
2022-11-24T06:37:02.969Z,5.43
2022-11-24T06:39:37.499Z,5.47
2022-11-24T06:42:11.540Z,5.32
2022-11-24T06:44:45.484Z,5.40
2022-11-24T06:47:19.477Z,5.60
2022-11-24T06:49:53.921Z,4.72
2022-11-24T06:52:29.287Z,4.82
2022-11-24T06:55:03.201Z,4.80
2022-11-24T06:57:37.117Z,5.10
2022-11-24T07:02:46.320Z,4.93
2022-11-24T07:05:20.458Z,6.07
2022-11-24T07:07:56.196Z,4.82
2022-11-24T07:10:30.251Z,9.18
2022-11-24T07:13:04.451Z,10.23
2022-11-24T07:15:38.544Z,10.23
2022-11-24T07:18:12.426Z,8.27
2022-11-24T07:20:46.482Z,9.80
2022-11-24T07:23:21.913Z,9.32
2022-11-24T07:25:55.835Z,8.38
2022-11-24T07:28:30.028Z,8.07
2022-11-24T07:31:08.170Z,8.23
2022-11-24T07:33:42.500Z,8.43
2022-11-24T07:36:16.439Z,7.95
2022-11-24T07:38:51.850Z,7.32
2022-11-24T07:41:25.691Z,7.85
2022-11-24T07:46:33.354Z,7.60
2022-11-24T07:49:07.376Z,7.07
2022-11-24T07:51:41.403Z,7.22
2022-11-24T07:54:16.922Z,7.57
2022-11-24T07:56:51.026Z,7.38
2022-11-24T07:59:25.106Z,6.68
2022-11-24T08:02:00.101Z,6.93
2022-11-24T08:04:34.424Z,6.10
2022-11-24T08:07:08.573Z,6.43
2022-11-24T08:09:43.979Z,7.00
2022-11-24T08:12:21.664Z,6.63
2022-11-24T08:14:55.540Z,5.15
2022-11-24T08:17:30.156Z,5.32
2022-11-24T08:20:06.159Z,6.13
2022-11-24T08:22:40.089Z,5.78
2022-11-24T08:27:49.362Z,6.20
2022-11-24T08:32:57.255Z,5.97
2022-11-24T08:35:31.408Z,6.57
2022-11-24T08:38:05.374Z,6.55
2022-11-24T08:40:40.760Z,6.20
2022-11-24T08:43:14.643Z,6.45
2022-11-24T08:48:22.178Z,5.57
2022-11-24T08:50:56.324Z,5.90
2022-11-24T08:53:30.250Z,5.88
2022-11-24T08:56:06.343Z,6.75
2022-11-24T08:58:41.318Z,5.55
2022-11-24T09:01:16.811Z,6.47
2022-11-24T09:03:51.704Z,5.20
2022-11-24T09:06:27.995Z,6.00
2022-11-24T09:09:02.173Z,5.65
2022-11-24T09:11:37.475Z,6.35
2022-11-24T09:14:11.328Z,5.60
2022-11-24T09:16:45.336Z,5.78
2022-11-24T09:19:19.252Z,6.00
2022-11-24T09:21:53.263Z,5.72
2022-11-24T09:24:27.884Z,5.60
2022-11-24T09:27:03.302Z,6.75
2022-11-24T09:29:37.194Z,5.88
2022-11-24T09:32:11.353Z,5.97
2022-11-24T09:34:46.375Z,6.03
2022-11-24T09:37:20.816Z,14.82
2022-11-24T09:39:54.771Z,14.88
2022-11-24T09:42:40.176Z,13.00
2022-11-24T09:45:42.032Z,12.45
2022-11-24T09:48:27.472Z,10.68
2022-11-24T09:51:05.090Z,9.88
2022-11-24T09:53:44.806Z,10.07
2022-11-24T09:56:23.964Z,9.35
2022-11-24T09:59:04.069Z,8.75
2022-11-24T10:01:42.228Z,7.85
2022-11-24T10:04:19.839Z,7.53
2022-11-24T10:07:01.088Z,7.47
2022-11-24T10:09:46.920Z,8.13
2022-11-24T10:12:43.563Z,7.28
2022-11-24T10:15:35.007Z,6.45
2022-11-24T10:18:24.276Z,6.80
2022-11-24T10:21:11.616Z,7.00
2022-11-24T10:24:06.658Z,6.80
2022-11-24T10:26:42.480Z,6.80
2022-11-24T10:29:22.577Z,6.80
2022-11-24T10:31:59.232Z,7.22
2022-11-24T10:34:37.101Z,7.63
2022-11-24T10:37:18.448Z,8.32
2022-11-24T10:40:00.789Z,6.82
2022-11-24T10:42:37.094Z,7.90
2022-11-24T10:45:14.335Z,7.55
2022-11-24T10:47:50.695Z,7.88
2022-11-24T10:50:26.089Z,8.30
2022-11-24T10:53:12.480Z,7.43
2022-11-24T10:55:59.887Z,6.97
2022-11-24T10:58:37.965Z,7.05
2022-11-24T11:01:28.004Z,7.07
2022-11-24T11:04:03.612Z,7.03
2022-11-24T11:06:38.235Z,7.18
2022-11-24T11:09:20.617Z,8.02
2022-11-24T11:11:55.546Z,6.55
2022-11-24T11:14:35.810Z,6.32
2022-11-24T11:17:32.959Z,6.88
2022-11-24T11:20:19.374Z,6.45
2022-11-24T11:22:53.534Z,6.00
2022-11-24T11:25:32.393Z,6.10
2022-11-24T11:28:26.481Z,5.90
2022-11-24T11:31:19.736Z,5.22
2022-11-24T11:34:06.143Z,5.28
2022-11-24T11:36:46.715Z,4.97
2022-11-24T11:39:33.442Z,5.88
2022-11-24T11:42:45.168Z,6.70
2022-11-24T11:45:17.695Z,5.68
2022-11-24T11:47:55.504Z,5.32
2022-11-24T11:51:14.798Z,5.72
2022-11-24T11:53:45.902Z,5.38
2022-11-24T11:56:26.436Z,5.10
2022-11-24T11:59:30.100Z,5.88
2022-11-24T12:02:31.537Z,5.53
2022-11-24T12:05:17.204Z,5.03
2022-11-24T12:08:09.772Z,5.82
2022-11-24T12:10:51.798Z,4.63
2022-11-24T12:14:06.285Z,4.93
2022-11-24T12:16:49.238Z,5.22
2022-11-24T12:20:00.169Z,5.45
2022-11-24T12:22:45.273Z,5.30
2022-11-24T12:25:27.333Z,5.28
2022-11-24T12:28:17.887Z,5.40
2022-11-24T12:31:04.857Z,4.93
2022-11-24T12:34:07.894Z,4.53
2022-11-24T12:36:53.118Z,3.97
2022-11-24T12:39:35.152Z,4.38
2022-11-24T12:42:14.660Z,4.75
2022-11-24T12:45:06.418Z,4.40
2022-11-24T12:47:51.820Z,3.75
2022-11-24T12:50:29.420Z,4.43
2022-11-24T12:53:07.536Z,4.60
2022-11-24T12:55:42.730Z,4.10
2022-11-24T12:58:22.967Z,4.43
2022-11-24T13:01:16.124Z,4.28
2022-11-24T13:04:05.074Z,3.63
2022-11-24T13:06:49.609Z,3.83
2022-11-24T13:09:24.207Z,3.90
2022-11-24T13:12:10.245Z,4.85
2022-11-24T13:14:46.560Z,4.13
2022-11-24T13:17:40.597Z,4.38
2022-11-24T13:20:27.908Z,3.85
2022-11-24T13:23:04.343Z,3.53
2022-11-24T13:25:38.567Z,3.22
2022-11-24T13:29:03.258Z,4.07
2022-11-24T13:31:43.312Z,3.92
2022-11-24T13:34:55.306Z,3.65
2022-11-24T13:37:51.740Z,3.05
2022-11-24T13:41:06.234Z,3.33
2022-11-24T13:43:39.098Z,3.47
2022-11-24T13:46:13.066Z,3.88
2022-11-24T13:49:02.522Z,3.50
2022-11-24T13:51:36.575Z,4.30
2022-11-24T13:54:12.490Z,3.47
2022-11-24T13:56:46.525Z,3.58
2022-11-24T13:59:32.131Z,3.90
2022-11-24T14:02:23.148Z,3.22
2022-11-24T14:05:03.284Z,4.05
2022-11-24T14:07:37.262Z,3.10
2022-11-24T14:10:21.423Z,3.70
2022-11-24T14:15:43.860Z,3.63
2022-11-24T14:18:19.242Z,4.47
2022-11-24T14:20:53.105Z,3.83
2022-11-24T14:26:02.165Z,3.90
2022-11-24T14:28:36.036Z,3.72
2022-11-24T14:31:11.123Z,3.63
2022-11-24T14:33:45.217Z,3.35
2022-11-24T14:36:20.000Z,3.65
2022-11-24T14:38:54.217Z,3.70
2022-11-24T14:41:29.818Z,3.70
2022-11-24T14:44:20.476Z,3.38
2022-11-24T14:47:04.894Z,3.65
2022-11-24T14:49:43.036Z,3.90
2022-11-24T14:52:19.480Z,4.22
2022-11-24T14:54:55.557Z,4.13
2022-11-24T14:57:35.205Z,4.18
2022-11-24T15:00:19.561Z,4.35
2022-11-24T15:02:56.305Z,4.43
2022-11-24T15:05:53.161Z,4.53
2022-11-24T15:08:29.379Z,4.95
2022-11-24T15:11:06.521Z,6.15
2022-11-24T15:13:52.664Z,5.68
2022-11-24T15:16:31.770Z,5.07
2022-11-24T15:19:08.210Z,4.68
2022-11-24T15:21:42.386Z,5.05
2022-11-24T15:24:18.775Z,5.00
2022-11-24T15:27:00.685Z,4.90
2022-11-24T15:29:36.653Z,4.22
2022-11-24T15:32:15.300Z,4.63
2022-11-24T15:34:49.286Z,5.63
2022-11-24T15:37:23.259Z,5.72
2022-11-24T15:39:57.421Z,5.03
2022-11-24T15:42:31.463Z,7.03
2022-11-24T15:45:07.489Z,10.48
2022-11-24T15:47:41.455Z,9.93
2022-11-24T15:50:16.284Z,9.93
2022-11-24T15:52:50.810Z,11.00
2022-11-24T15:55:24.960Z,10.00
2022-11-24T15:57:59.002Z,9.52
2022-11-24T16:00:34.375Z,8.77
2022-11-24T16:03:44.480Z,9.07
2022-11-24T16:06:02.724Z,9.25
2022-11-24T16:08:36.752Z,8.63
2022-11-24T16:11:10.877Z,8.73
2022-11-24T16:13:51.551Z,9.10
2022-11-24T16:16:28.354Z,9.48
2022-11-24T16:19:02.385Z,10.05
2022-11-24T16:21:36.658Z,9.65
2022-11-24T16:24:10.932Z,8.73
2022-11-24T16:26:44.990Z,8.43
2022-11-24T16:29:21.070Z,10.10
2022-11-24T16:31:57.795Z,8.77
2022-11-24T16:34:32.240Z,9.63
2022-11-24T16:37:06.726Z,9.55
2022-11-24T16:39:44.492Z,9.88
2022-11-24T16:42:22.646Z,10.18
2022-11-24T16:44:56.673Z,10.02
2022-11-24T16:47:32.208Z,10.15
2022-11-24T16:50:07.424Z,9.80
2022-11-24T16:52:41.658Z,9.85
2022-11-24T16:55:15.697Z,10.02
2022-11-24T16:57:49.674Z,9.90
2022-11-24T17:00:24.193Z,9.25
2022-11-24T17:02:59.794Z,8.88
2022-11-24T17:05:33.744Z,8.95
2022-11-24T17:08:07.848Z,9.07
2022-11-24T17:10:41.721Z,8.75
2022-11-24T17:13:15.703Z,9.18
2022-11-24T17:15:54.156Z,10.65
2022-11-24T17:18:29.910Z,10.23
2022-11-24T17:21:09.493Z,9.93
2022-11-24T17:23:43.993Z,10.18
2022-11-24T17:26:19.151Z,10.63
2022-11-24T17:28:53.760Z,10.45
2022-11-24T17:31:29.804Z,11.93
2022-11-24T17:34:07.472Z,12.35
2022-11-24T17:36:44.805Z,11.75
2022-11-24T17:39:24.504Z,10.85
2022-11-24T17:41:58.968Z,11.43
2022-11-24T17:44:33.482Z,10.73
2022-11-24T17:47:07.889Z,13.60
2022-11-24T17:49:43.657Z,12.90
2022-11-24T17:52:18.355Z,12.00
2022-11-24T17:54:52.292Z,10.68
2022-11-24T17:57:26.580Z,12.63
2022-11-24T18:00:00.475Z,10.85
2022-11-24T18:02:34.640Z,12.15
2022-11-24T18:05:10.765Z,11.15
2022-11-24T18:07:45.041Z,10.75
2022-11-24T18:10:20.037Z,10.90
2022-11-24T18:12:54.369Z,14.25
2022-11-24T18:15:28.491Z,30.23
2022-11-24T18:18:02.504Z,56.53
2022-11-24T18:20:37.950Z,90.45
2022-11-24T18:23:12.171Z,84.50
2022-11-24T18:25:53.140Z,75.25
2022-11-24T18:28:27.790Z,79.05
2022-11-24T18:31:05.969Z,64.32
2022-11-24T18:33:40.911Z,59.80
2022-11-24T18:36:17.916Z,60.70
2022-11-24T18:38:52.054Z,55.65
2022-11-24T18:41:26.060Z,55.47
2022-11-24T18:44:02.469Z,51.85
2022-11-24T18:46:36.668Z,48.22
2022-11-24T18:49:10.821Z,44.92
2022-11-24T18:51:46.268Z,43.55
2022-11-24T18:54:20.698Z,41.83
2022-11-24T18:56:57.783Z,39.58
2022-11-24T18:59:36.968Z,42.22
2022-11-24T19:02:12.416Z,36.03
2022-11-24T19:04:46.523Z,35.70
2022-11-24T19:07:22.096Z,36.33
2022-11-24T19:09:57.812Z,34.53
2022-11-24T19:12:31.885Z,34.10
2022-11-24T19:15:07.080Z,32.80
2022-11-24T19:17:41.098Z,34.20
2022-11-24T19:20:15.663Z,32.67
2022-11-24T19:22:52.126Z,31.85
2022-11-24T19:25:26.564Z,31.33
2022-11-24T19:28:00.843Z,30.83
2022-11-24T19:30:35.129Z,28.20
2022-11-24T19:33:10.391Z,27.85
2022-11-24T19:35:44.995Z,25.52
2022-11-24T19:38:23.372Z,26.52
2022-11-24T19:41:05.389Z,27.70
2022-11-24T19:43:39.835Z,26.95
2022-11-24T19:46:16.100Z,26.90
2022-11-24T19:48:54.403Z,26.38
2022-11-24T19:51:31.445Z,27.98
2022-11-24T19:54:09.225Z,26.52
2022-11-24T19:56:43.292Z,25.50
2022-11-24T19:59:17.563Z,27.17
2022-11-24T20:01:51.867Z,26.23
2022-11-24T20:04:25.985Z,23.92
2022-11-24T20:07:00.400Z,23.40
2022-11-24T20:09:35.905Z,22.33
2022-11-24T20:12:10.113Z,22.13
2022-11-24T20:14:44.218Z,21.85
2022-11-24T20:17:20.349Z,20.48
2022-11-24T20:19:54.679Z,21.35
2022-11-24T20:22:28.789Z,19.33
2022-11-24T20:25:04.292Z,21.50
2022-11-24T20:27:38.349Z,20.55
2022-11-24T20:30:13.151Z,20.52
2022-11-24T20:32:47.272Z,19.45
2022-11-24T20:35:21.636Z,19.95
2022-11-24T20:37:57.473Z,17.67
2022-11-24T20:40:32.853Z,18.55
2022-11-24T20:43:06.828Z,19.70
2022-11-24T20:45:40.822Z,18.83
2022-11-24T20:48:14.912Z,18.52
2022-11-24T20:50:51.479Z,17.00
2022-11-24T20:53:25.858Z,17.05
2022-11-24T20:56:06.742Z,17.42
2022-11-24T20:58:42.516Z,16.05
2022-11-24T21:01:18.652Z,17.45
2022-11-24T21:03:55.383Z,16.67
2022-11-24T21:06:30.839Z,16.40
2022-11-24T21:09:06.098Z,17.00
2022-11-24T21:11:41.934Z,16.27
2022-11-24T21:14:16.328Z,17.05
2022-11-24T21:16:50.378Z,16.48
2022-11-24T21:19:24.480Z,15.57
2022-11-24T21:21:58.388Z,14.90
2022-11-24T21:24:32.646Z,15.38
2022-11-24T21:27:08.264Z,14.98
2022-11-24T21:29:42.348Z,16.83
2022-11-24T21:32:16.340Z,15.45
2022-11-24T21:34:50.286Z,14.80
2022-11-24T21:37:24.280Z,14.45
2022-11-24T21:39:58.284Z,13.70
2022-11-24T21:42:33.690Z,13.98
2022-11-24T21:45:10.906Z,14.35
2022-11-24T21:47:46.665Z,14.75
2022-11-24T21:50:20.805Z,15.30
2022-11-24T21:52:57.111Z,13.40
2022-11-24T21:55:34.533Z,13.82
2022-11-24T21:58:10.185Z,14.18
2022-11-24T22:00:44.256Z,14.77
2022-11-24T22:03:18.978Z,12.30
2022-11-24T22:05:57.758Z,13.30
2022-11-24T22:08:32.838Z,12.77
2022-11-24T22:11:08.536Z,13.15
2022-11-24T22:13:44.728Z,12.07
2022-11-24T22:16:20.250Z,11.55
2022-11-24T22:18:54.541Z,12.18
2022-11-24T22:21:33.746Z,12.13
2022-11-24T22:24:10.672Z,12.15
2022-11-24T22:26:44.677Z,12.57
2022-11-24T22:29:20.639Z,11.93
2022-11-24T22:31:55.080Z,13.05
2022-11-24T22:34:30.338Z,12.73
2022-11-24T22:37:04.254Z,11.95
2022-11-24T22:39:38.380Z,11.77
2022-11-24T22:42:12.335Z,11.52
2022-11-24T22:44:47.910Z,11.77
2022-11-24T22:47:21.999Z,12.02
2022-11-24T22:49:56.067Z,11.25
2022-11-24T22:52:29.954Z,12.20
2022-11-24T22:55:04.294Z,10.85
2022-11-24T22:57:38.292Z,12.27
2022-11-24T23:00:15.638Z,10.95
2022-11-24T23:02:49.623Z,11.20
2022-11-24T23:05:23.643Z,11.85
2022-11-24T23:07:57.724Z,10.93
2022-11-24T23:10:31.803Z,11.73
2022-11-24T23:15:40.975Z,10.82
2022-11-24T23:18:14.912Z,11.77
2022-11-24T23:20:48.832Z,11.02
2022-11-24T23:23:23.082Z,11.40
2022-11-24T23:25:56.994Z,10.93
2022-11-24T23:28:31.062Z,10.50
2022-11-24T23:31:08.462Z,10.50
2022-11-24T23:33:42.661Z,11.15
2022-11-24T23:36:18.154Z,11.90
2022-11-24T23:38:52.350Z,10.88
2022-11-24T23:41:27.273Z,10.40
2022-11-24T23:44:01.266Z,10.38
2022-11-24T23:46:36.849Z,10.82
2022-11-24T23:49:10.781Z,10.70
2022-11-24T23:51:44.678Z,10.20
2022-11-24T23:54:18.556Z,10.50
2022-11-24T23:56:52.486Z,10.02
2022-11-24T23:59:27.052Z,10.88
